Time;durP1;ratioP1;P1;durP2;ratioP2;P2;SDS_P1;SDS_P2;PMS_P1;PMS_P2;Temp;Humidity;BMP_temperature;BMP_pressure;BME280_temperature;BME280_humidity;BME280_pressure;Samples;Min_cycle;Max_cycle;Signal;HPM_P1;HPM_P2
2021/03/14 00:00:58;;;;;;;3.90;1.23;;;;;;;4.72;70.11;98868.41;123412;1102;65686;-76
2021/03/14 00:03:27;;;;;;;3.03;1.03;;;;;;;4.72;71.14;98863.16;123570;1105;64898;-75
2021/03/14 00:05:55;;;;;;;3.93;1.20;;;;;;;4.69;71.26;98869.56;123480;1102;64908;-75
2021/03/14 00:08:25;;;;;;;7.90;1.20;;;;;;;4.69;70.64;98874.81;123409;1102;64914;-75
2021/03/14 00:10:54;;;;;;;6.03;1.37;;;;;;;4.74;70.14;98882.17;123408;1105;65002;-77
2021/03/14 00:13:23;;;;;;;5.10;1.10;;;;;;;4.76;70.65;98879.34;123442;1103;65919;-78
2021/03/14 00:15:50;;;;;;;3.60;1.00;;;;;;;4.76;70.90;98874.92;123577;1105;64994;-75
2021/03/14 00:18:19;;;;;;;5.60;0.97;;;;;;;4.74;71.13;98876.92;123495;1105;64912;-76
2021/03/14 00:20:45;;;;;;;2.33;1.10;;;;;;;4.75;70.89;98888.23;123370;1105;66302;-76
2021/03/14 00:23:12;;;;;;;3.70;1.10;;;;;;;4.77;70.85;98908.06;123497;1102;64911;-75
2021/03/14 00:25:38;;;;;;;9.13;1.30;;;;;;;4.77;69.94;98897.56;123575;1105;65054;-77
2021/03/14 00:28:06;;;;;;;6.20;1.40;;;;;;;4.78;70.89;98875.56;123395;1106;65004;-76
2021/03/14 00:30:33;;;;;;;4.17;1.50;;;;;;;4.76;70.41;98893.31;123550;1102;64905;-75
2021/03/14 00:32:59;;;;;;;2.03;1.10;;;;;;;4.81;69.95;98900.64;123447;1102;65839;-74
2021/03/14 00:35:25;;;;;;;3.40;0.90;;;;;;;4.82;70.17;98908.33;123397;1105;65004;-78
2021/03/14 00:37:53;;;;;;;4.47;1.20;;;;;;;4.83;70.40;98923.10;123393;1102;65713;-76
2021/03/14 00:40:22;;;;;;;4.43;1.33;;;;;;;4.82;70.27;98941.67;123432;1105;65363;-74
2021/03/14 00:42:49;;;;;;;2.20;0.90;;;;;;;4.66;75.90;98982.06;123476;1101;64860;-78
2021/03/14 00:45:32;;;;;;;2.23;0.50;;;;;;;4.12;78.43;98990.05;123406;1105;64864;-81
2021/03/14 00:48:01;;;;;;;0.47;0.40;;;;;;;3.52;80.91;98986.31;123687;1105;65329;-79
2021/03/14 00:50:33;;;;;;;2.90;0.43;;;;;;;3.12;83.71;98991.55;123679;1102;64994;-80
2021/03/14 00:53:00;;;;;;;2.80;0.40;;;;;;;2.88;84.33;99009.95;123501;1105;65750;-80
2021/03/14 00:55:26;;;;;;;1.60;0.30;;;;;;;2.68;86.29;98996.39;123479;1105;64966;-79
2021/03/14 00:57:52;;;;;;;0.40;0.30;;;;;;;2.51;87.30;99008.67;123515;1102;64905;-80
2021/03/14 01:00:18;;;;;;;0.63;0.63;;;;;;;2.42;87.90;99037.49;123486;1102;64882;-81
2021/03/14 01:02:45;;;;;;;1.70;0.30;;;;;;;2.37;88.37;99007.55;123503;1105;65699;-80
2021/03/14 01:05:12;;;;;;;0.30;0.30;;;;;;;2.33;88.58;99014.09;123522;1102;65001;-80
2021/03/14 01:07:38;;;;;;;1.00;0.40;;;;;;;2.29;89.29;99058.06;123477;1102;65478;-80
2021/03/14 01:10:09;;;;;;;0.13;0.13;;;;;;;2.29;89.60;99015.39;123465;1102;64894;-81
2021/03/14 01:12:37;;;;;;;0.57;0.30;;;;;;;2.29;89.71;99031.09;123444;1103;64789;-81
2021/03/14 01:15:11;;;;;;;0.20;0.20;;;;;;;2.28;89.90;99030.28;123602;1105;64944;-82
2021/03/14 01:17:38;;;;;;;0.63;0.40;;;;;;;2.29;90.12;99037.14;123489;1102;64934;-81
2021/03/14 01:20:09;;;;;;;3.80;0.33;;;;;;;2.30;90.65;99053.67;123459;1102;64901;-83
2021/03/14 01:22:35;;;;;;;4.27;0.70;;;;;;;2.29;90.33;99042.37;123499;1102;64850;-81
2021/03/14 01:25:03;;;;;;;1.13;0.53;;;;;;;2.29;91.03;99037.14;123412;1102;64912;-80
2021/03/14 01:27:29;;;;;;;1.35;0.75;;;;;;;2.30;90.74;99033.55;123586;1105;65712;-80
2021/03/14 01:29:56;;;;;;;1.67;0.70;;;;;;;2.32;90.33;99051.72;123437;1102;64918;-80
2021/03/14 01:32:22;;;;;;;0.93;0.60;;;;;;;2.33;90.50;99050.72;123428;1102;65027;-81
2021/03/14 01:34:49;;;;;;;3.13;1.13;;;;;;;2.32;91.50;99052.53;123427;1105;64953;-80
2021/03/14 01:37:17;;;;;;;2.60;0.70;;;;;;;2.33;91.22;99059.38;123508;1103;65045;-81
2021/03/14 01:39:47;;;;;;;1.73;0.90;;;;;;;2.32;90.82;99063.00;123594;1102;65279;-81
2021/03/14 01:42:13;;;;;;;5.33;1.47;;;;;;;2.32;90.62;99078.69;123491;1105;64908;-83
2021/03/14 01:44:47;;;;;;;2.90;0.90;;;;;;;2.32;90.68;99070.84;123435;1105;64898;-79
2021/03/14 01:47:13;;;;;;;2.67;1.50;;;;;;;2.28;90.78;99079.99;123566;1102;64803;-80
2021/03/14 01:49:40;;;;;;;2.00;1.07;;;;;;;2.25;91.44;99059.37;123515;1105;64879;-80
2021/03/14 01:52:06;;;;;;;1.27;0.95;;;;;;;2.22;91.54;99072.78;123427;1106;64889;-80
2021/03/14 01:54:33;;;;;;;3.30;0.85;;;;;;;2.22;91.29;99078.02;123515;1102;64924;-80
2021/03/14 01:56:59;;;;;;;2.40;1.40;;;;;;;2.22;92.23;99073.59;123401;1105;64927;-80
2021/03/14 01:59:27;;;;;;;5.87;2.60;;;;;;;2.21;91.36;99074.59;123386;1102;64909;-81
2021/03/14 02:01:54;;;;;;;2.47;1.23;;;;;;;2.19;91.45;99076.55;123548;1105;64949;-83
2021/03/14 02:04:20;;;;;;;4.93;2.27;;;;;;;2.19;91.78;99073.94;123464;1105;64982;-82
2021/03/14 02:06:46;;;;;;;3.87;2.08;;;;;;;2.19;91.81;99078.32;123456;1105;64919;-81
2021/03/14 02:09:12;;;;;;;5.13;3.23;;;;;;;2.12;91.91;99072.91;123464;1102;64936;-81
2021/03/14 02:11:44;;;;;;;4.20;2.27;;;;;;;2.24;92.03;99070.83;123442;1105;64937;-83
2021/03/14 02:14:11;;;;;;;6.20;3.00;;;;;;;2.24;91.80;99073.45;123398;1102;64918;-81
2021/03/14 02:16:42;;;;;;;6.40;2.50;;;;;;;2.26;92.10;99076.72;123457;1103;65019;-81
2021/03/14 02:19:16;;;;;;;3.83;1.77;;;;;;;2.28;91.77;99100.11;123568;1105;65158;-81
2021/03/14 02:21:43;;;;;;;5.60;2.40;;;;;;;2.31;92.11;99091.93;123669;1105;64896;-81
2021/03/14 02:24:15;;;;;;;3.23;1.57;;;;;;;2.34;92.54;99108.14;123507;1102;64838;-80
2021/03/14 02:26:45;;;;;;;2.40;1.30;;;;;;;2.34;92.62;99123.84;123410;1102;66179;-80
2021/03/14 02:29:21;;;;;;;2.07;1.33;;;;;;;2.36;91.92;99110.56;123444;1101;64927;-80
2021/03/14 02:31:52;;;;;;;11.63;2.93;;;;;;;2.36;92.50;99111.41;123465;1105;64863;-81
2021/03/14 02:34:29;;;;;;;3.17;1.80;;;;;;;2.37;92.06;99133.97;123446;1105;64966;-84
2021/03/14 02:36:57;;;;;;;3.25;1.70;;;;;;;2.35;92.07;99120.22;123549;1102;64978;-82
2021/03/14 02:39:25;;;;;;;1.87;1.27;;;;;;;2.31;91.35;99113.67;123505;1105;64879;-82
2021/03/14 02:41:54;;;;;;;3.63;1.43;;;;;;;2.28;91.71;99119.23;123459;1106;64981;-81
2021/03/14 02:44:23;;;;;;;5.05;2.50;;;;;;;2.23;91.84;99122.34;123429;1105;64893;-81
2021/03/14 02:46:52;;;;;;;2.60;0.93;;;;;;;2.21;91.98;99133.92;123641;1105;64879;-82
2021/03/14 02:49:21;;;;;;;4.60;1.97;;;;;;;2.20;92.64;99134.91;123532;1105;65026;-80
2021/03/14 02:51:48;;;;;;;6.47;2.00;;;;;;;2.20;91.76;99127.06;123538;1105;64918;-81
2021/03/14 02:54:16;;;;;;;1.43;0.80;;;;;;;2.20;91.40;99147.99;123467;1105;64873;-82
2021/03/14 02:56:45;;;;;;;4.83;1.43;;;;;;;2.20;91.28;99137.53;123475;1105;64975;-81
2021/03/14 02:59:18;;;;;;;5.27;1.53;;;;;;;2.19;92.36;99141.11;123554;1105;64915;-82
2021/03/14 03:01:47;;;;;;;6.93;2.90;;;;;;;2.21;91.43;99129.53;123572;1102;64866;-82
2021/03/14 03:04:16;;;;;;;2.43;1.17;;;;;;;2.22;91.82;99130.34;123589;1105;64882;-81
2021/03/14 03:06:44;;;;;;;4.37;1.40;;;;;;;2.22;91.86;99133.77;123797;1103;65352;-80
2021/03/14 03:09:11;;;;;;;3.20;1.30;;;;;;;2.24;92.45;99138.85;123601;1105;65010;-80
2021/03/14 03:11:39;;;;;;;1.07;0.67;;;;;;;2.24;91.98;99139.66;123449;1104;65008;-79
2021/03/14 03:14:10;;;;;;;5.50;1.07;;;;;;;2.27;91.66;99156.02;123494;1102;64912;-79
2021/03/14 03:16:38;;;;;;;2.30;1.07;;;;;;;2.29;91.70;99167.96;123456;1105;64972;-81
2021/03/14 03:19:05;;;;;;;10.43;2.97;;;;;;;2.30;92.15;99172.23;123541;1105;65230;-82
2021/03/14 03:21:31;;;;;;;9.20;3.67;;;;;;;2.33;92.10;99171.09;123791;1105;65289;-84
2021/03/14 03:23:58;;;;;;;8.23;2.70;;;;;;;2.35;92.41;99180.41;123392;1102;64944;-84
2021/03/14 03:26:27;;;;;;;38.40;5.60;;;;;;;2.37;91.84;99201.20;123430;1102;64942;-84
2021/03/14 03:28:53;;;;;;;17.23;5.33;;;;;;;2.40;92.24;99213.95;123577;1102;65355;-87
2021/03/14 03:31:19;;;;;;;13.07;3.50;;;;;;;2.36;91.37;99218.70;123902;1102;64892;-87
2021/03/14 03:33:46;;;;;;;17.33;3.23;;;;;;;2.29;91.14;99212.44;124221;1105;64844;-87
2021/03/14 03:36:12;;;;;;;10.83;2.63;;;;;;;2.20;90.11;99260.48;123696;1104;64888;-85
2021/03/14 03:38:39;;;;;;;5.10;1.60;;;;;;;2.11;90.99;99228.24;123505;1102;64944;-80
2021/03/14 03:41:05;;;;;;;2.65;1.05;;;;;;;1.99;90.49;99230.30;123500;1105;64911;-82
2021/03/14 03:43:35;;;;;;;8.10;2.13;;;;;;;1.90;91.57;99236.47;123398;1102;65720;-79
2021/03/14 03:46:07;;;;;;;9.37;2.10;;;;;;;1.83;91.59;99236.27;123776;1105;64949;-81
2021/03/14 03:48:55;;;;;;;4.73;2.43;;;;;;;1.81;92.47;99237.41;123519;1106;64950;-81
2021/03/14 03:51:25;;;;;;;2.53;1.13;;;;;;;1.79;92.38;99239.36;123497;1102;64888;-81
2021/03/14 03:53:54;;;;;;;6.47;2.87;;;;;;;1.78;92.57;99248.16;123431;1105;65712;-82
2021/03/14 03:56:21;;;;;;;3.90;1.20;;;;;;;1.79;92.66;99275.95;123664;1105;66069;-82
2021/03/14 03:58:48;;;;;;;7.97;2.73;;;;;;;1.82;92.45;99267.80;123550;1102;64966;-81
2021/03/14 04:01:15;;;;;;;7.00;3.40;;;;;;;1.85;92.71;99280.58;123606;1106;64899;-80
2021/03/14 04:03:44;;;;;;;8.63;2.43;;;;;;;1.91;92.81;99274.70;123712;1103;65048;-84
2021/03/14 04:06:13;;;;;;;8.87;2.43;;;;;;;1.93;92.94;99267.52;123892;1105;65363;-84
2021/03/14 04:08:43;;;;;;;5.53;1.77;;;;;;;1.97;92.43;99283.73;124021;1105;64914;-85
2021/03/14 04:11:13;;;;;;;11.05;3.30;;;;;;;2.01;93.18;99288.50;123814;1105;64988;-86
2021/03/14 04:13:45;;;;;;;8.20;2.50;;;;;;;2.04;92.50;99327.45;123645;1105;64994;-83
2021/03/14 04:16:13;;;;;;;6.17;1.80;;;;;;;2.07;92.12;99325.50;123765;1102;65346;-85
2021/03/14 04:18:42;;;;;;;2.83;1.10;;;;;;;2.08;91.29;99290.50;123573;1102;65347;-81
2021/03/14 04:21:14;;;;;;;3.40;1.67;;;;;;;2.09;91.40;99313.09;123519;1102;65119;-80
2021/03/14 04:23:43;;;;;;;3.47;1.47;;;;;;;2.10;91.48;99304.25;123423;1105;64912;-81
2021/03/14 04:26:11;;;;;;;6.80;1.97;;;;;;;2.11;90.50;99316.37;123608;1105;64943;-81
2021/03/14 04:28:40;;;;;;;5.83;1.40;;;;;;;2.12;91.55;99331.08;125851;1102;64841;-82
2021/03/14 04:31:06;;;;;;;4.50;1.57;;;;;;;2.12;91.55;99333.69;126040;1103;64899;-81
2021/03/14 04:33:33;;;;;;;2.20;1.00;;;;;;;2.12;91.70;99325.84;125079;1102;64834;-81
2021/03/14 04:36:02;;;;;;;7.40;2.37;;;;;;;2.10;91.54;99335.64;123664;1105;65312;-82
2021/03/14 04:38:30;;;;;;;3.20;1.97;;;;;;;2.09;91.84;99345.29;123824;1102;64917;-80
2021/03/14 04:40:58;;;;;;;5.27;2.40;;;;;;;2.09;92.06;99358.37;123474;1105;64937;-81
2021/03/14 04:43:26;;;;;;;7.35;2.25;;;;;;;2.09;92.22;99347.09;123577;1105;65700;-82
2021/03/14 04:45:54;;;;;;;5.83;1.63;;;;;;;2.08;92.36;99354.09;123449;1105;65025;-83
2021/03/14 04:48:22;;;;;;;3.03;1.07;;;;;;;2.09;91.92;99350.52;123427;1105;65692;-82
2021/03/14 04:50:50;;;;;;;5.20;1.37;;;;;;;2.10;92.20;99346.10;123494;1102;64959;-84
2021/03/14 04:53:18;;;;;;;3.97;1.63;;;;;;;2.17;91.55;99349.77;123463;1105;64947;-81
2021/03/14 04:55:46;;;;;;;4.73;1.23;;;;;;;2.21;91.18;99359.77;123474;1102;64975;-82
2021/03/14 04:58:17;;;;;;;2.17;0.67;;;;;;;2.24;91.63;99363.86;123445;1105;65081;-83
2021/03/14 05:00:44;;;;;;;4.83;1.83;;;;;;;2.28;91.54;99374.84;123527;1102;66038;-81
2021/03/14 05:03:13;;;;;;;6.43;2.37;;;;;;;2.30;91.22;99372.91;123574;1105;64002;-81
2021/03/14 05:05:42;;;;;;;4.93;2.17;;;;;;;2.35;90.91;99358.36;124291;1102;64891;-80
2021/03/14 05:08:27;;;;;;;10.33;2.00;;;;;;;2.41;90.18;99365.59;124522;1103;64994;-81
2021/03/14 05:10:54;;;;;;;5.20;1.73;;;;;;;2.44;89.93;99354.83;123510;1105;64910;-79
2021/03/14 05:13:20;;;;;;;7.73;3.40;;;;;;;2.45;90.84;99353.84;123443;1105;65261;-82
2021/03/14 05:15:54;;;;;;;9.87;3.53;;;;;;;2.50;91.11;99369.08;123596;1102;65713;-80
2021/03/14 05:18:22;;;;;;;12.63;2.90;;;;;;;2.54;90.33;99369.59;123550;1105;64917;-82
2021/03/14 05:20:49;;;;;;;13.33;3.27;;;;;;;2.59;89.87;99356.84;123472;1105;64975;-81
2021/03/14 05:23:16;;;;;;;16.30;4.53;;;;;;;2.63;89.82;99373.88;123366;1102;65091;-80
2021/03/14 05:25:44;;;;;;;6.90;2.77;;;;;;;2.68;90.00;99392.58;123569;1102;64918;-80
2021/03/14 05:28:12;;;;;;;5.40;2.23;;;;;;;2.70;90.14;99390.63;123573;1105;65714;-80
2021/03/14 05:30:38;;;;;;;3.07;1.77;;;;;;;2.74;90.15;99391.12;123409;1105;64981;-81
2021/03/14 05:33:09;;;;;;;10.63;3.53;;;;;;;2.75;90.12;99398.83;123475;1102;64893;-81
2021/03/14 05:35:36;;;;;;;16.87;3.93;;;;;;;2.78;89.54;99403.73;123530;1105;64902;-82
2021/03/14 05:38:02;;;;;;;14.50;4.90;;;;;;;2.80;89.46;99395.73;123491;1105;64907;-81
2021/03/14 05:40:29;;;;;;;11.43;2.65;;;;;;;2.83;90.32;99398.05;123550;1102;64918;-82
2021/03/14 05:42:57;;;;;;;10.57;3.80;;;;;;;2.88;89.80;99414.11;123581;1105;65246;-80
2021/03/14 05:45:24;;;;;;;8.97;2.67;;;;;;;2.95;89.55;99417.73;123659;1105;65027;-82
2021/03/14 05:47:50;;;;;;;3.93;1.93;;;;;;;2.99;89.56;99424.30;123516;1105;64969;-81
2021/03/14 05:50:22;;;;;;;13.77;4.23;;;;;;;3.03;90.01;99443.16;123467;1102;64902;-80
2021/03/14 05:52:50;;;;;;;14.33;3.23;;;;;;;3.06;89.29;99448.91;123633;1105;65721;-81
2021/03/14 05:55:22;;;;;;;8.70;2.50;;;;;;;3.10;89.34;99472.97;123531;1105;65311;-80
2021/03/14 05:57:53;;;;;;;15.70;3.00;;;;;;;3.08;89.62;99471.49;123547;1105;65223;-79
2021/03/14 06:00:31;;;;;;;3.07;1.23;;;;;;;2.82;88.08;99477.58;123497;1105;64973;-82
2021/03/14 06:03:02;;;;;;;11.43;2.60;;;;;;;2.60;88.79;99474.51;123544;1105;64946;-82
2021/03/14 06:05:30;;;;;;;31.10;4.70;;;;;;;2.44;89.25;99458.68;123453;1103;64997;-81
2021/03/14 06:07:58;;;;;;;32.97;7.90;;;;;;;2.34;89.34;99479.73;123713;1102;64895;-80
2021/03/14 06:10:24;;;;;;;22.67;3.50;;;;;;;2.34;90.34;99491.97;123427;1102;65697;-78
2021/03/14 06:12:52;;;;;;;6.80;2.55;;;;;;;2.29;89.57;99489.81;123506;1102;65045;-82
2021/03/14 06:15:18;;;;;;;20.40;4.23;;;;;;;2.20;90.26;99514.27;123580;1105;64920;-80
2021/03/14 06:17:45;;;;;;;4.87;1.87;;;;;;;2.10;90.76;99506.48;123463;1105;64937;-79
2021/03/14 06:20:41;;;;;;;3.33;1.37;;;;;;;2.06;91.01;99509.55;123514;1105;64912;-80
2021/03/14 06:23:10;;;;;;;14.40;3.70;;;;;;;2.01;91.34;99513.44;123734;1103;64921;-83
2021/03/14 06:25:38;;;;;;;6.43;2.10;;;;;;;2.00;91.96;99514.42;123653;1105;64978;-82
2021/03/14 06:28:08;;;;;;;11.13;3.20;;;;;;;2.01;91.86;99510.82;123453;1105;64968;-83
2021/03/14 06:30:36;;;;;;;19.80;4.67;;;;;;;2.06;92.35;99528.68;123758;1102;65371;-83
2021/03/14 06:33:13;;;;;;;17.60;3.93;;;;;;;2.13;93.35;99519.28;123551;1105;64895;-81
2021/03/14 06:35:51;;;;;;;9.27;3.70;;;;;;;2.26;93.24;99537.22;123454;1105;65046;-80
2021/03/14 06:38:27;;;;;;;3.00;1.53;;;;;;;2.36;92.92;99551.06;123587;1102;64975;-81
2021/03/14 06:41:02;;;;;;;23.00;3.33;;;;;;;2.48;93.16;99548.20;123565;1102;66136;-81
2021/03/14 06:43:32;;;;;;;26.73;7.33;;;;;;;2.60;93.04;99557.47;123570;1105;64863;-83
2021/03/14 06:45:59;;;;;;;25.23;6.57;;;;;;;2.72;92.50;99566.73;123555;1105;64834;-81
2021/03/14 06:48:26;;;;;;;15.97;5.10;;;;;;;2.81;93.54;99573.67;123594;1105;64841;-83
2021/03/14 06:50:54;;;;;;;33.40;7.10;;;;;;;2.84;92.07;99578.59;123489;1105;65010;-82
2021/03/14 06:53:24;;;;;;;37.17;8.23;;;;;;;2.89;91.78;99579.94;123501;1105;64930;-82
2021/03/14 06:55:53;;;;;;;29.73;7.37;;;;;;;2.94;93.14;99585.55;123515;1105;64978;-82
2021/03/14 06:58:28;;;;;;;26.37;7.07;;;;;;;3.02;92.41;99598.72;123648;1105;64956;-81
2021/03/14 07:01:14;;;;;;;28.12;8.98;;;;;;;3.14;92.18;99586.98;123561;1105;64978;-78
2021/03/14 07:03:52;;;;;;;25.83;7.17;;;;;;;3.25;92.91;99594.61;123676;1102;64998;-79
2021/03/14 07:06:24;;;;;;;34.67;8.87;;;;;;;3.38;92.31;99601.20;123552;1106;64941;-78
2021/03/14 07:08:57;;;;;;;24.43;6.33;;;;;;;3.50;91.86;99615.70;123548;1103;64963;-80
2021/03/14 07:11:37;;;;;;;25.50;7.60;;;;;;;3.61;90.92;99615.45;123593;1102;65621;-78
2021/03/14 07:14:11;;;;;;;24.13;6.97;;;;;;;3.70;90.47;99629.42;123479;1105;64892;-78
2021/03/14 07:16:52;;;;;;;38.07;10.60;;;;;;;3.75;90.83;99631.57;123517;1104;64889;-79
2021/03/14 07:19:32;;;;;;;21.00;7.37;;;;;;;3.79;90.63;99633.72;123783;1105;64841;-80
2021/03/14 07:22:10;;;;;;;27.70;7.63;;;;;;;3.82;88.88;99648.31;123458;1102;64892;-80
2021/03/14 07:24:38;;;;;;;28.37;7.30;;;;;;;3.83;88.76;99649.98;123535;1102;64911;-79
2021/03/14 07:27:07;;;;;;;20.93;7.13;;;;;;;3.85;88.49;99671.63;123669;1102;65000;-80
2021/03/14 07:29:34;;;;;;;31.70;8.13;;;;;;;3.88;88.16;99671.30;123621;1102;65081;-79
2021/03/14 07:32:04;;;;;;;17.63;5.13;;;;;;;3.93;88.98;99676.92;123481;1104;64975;-77
2021/03/14 07:34:32;;;;;;;24.17;7.20;;;;;;;3.97;88.74;99672.97;123601;1102;66026;-80
2021/03/14 07:36:59;;;;;;;22.63;5.53;;;;;;;4.03;87.30;99676.78;123575;1105;64905;-79
2021/03/14 07:39:25;;;;;;;24.90;5.63;;;;;;;4.07;88.24;99692.05;123431;1105;66114;-79
2021/03/14 07:41:52;;;;;;;23.53;8.10;;;;;;;4.13;87.78;99687.17;123660;1105;64918;-79
2021/03/14 07:44:21;;;;;;;18.05;7.55;;;;;;;4.18;86.31;99690.13;123487;1105;65349;-79
2021/03/14 07:46:48;;;;;;;29.83;9.50;;;;;;;4.26;85.57;99719.04;123385;1103;65428;-79
2021/03/14 07:49:17;;;;;;;25.77;7.47;;;;;;;4.36;86.36;99703.98;123635;1105;65003;-80
2021/03/14 07:52:06;;;;;;;31.80;10.30;;;;;;;4.44;85.50;99717.14;123895;1105;64950;-81
2021/03/14 07:54:44;;;;;;;11.57;5.33;;;;;;;4.51;85.23;99732.27;123715;1102;65055;-79
2021/03/14 07:57:12;;;;;;;24.03;8.03;;;;;;;4.58;84.01;99733.27;124318;1102;65703;-80
2021/03/14 07:59:40;;;;;;;19.87;8.30;;;;;;;4.63;84.66;99726.56;123388;1105;64973;-79
2021/03/14 08:02:16;;;;;;;12.77;4.27;;;;;;;4.65;83.75;99731.63;123357;1102;64892;-78
2021/03/14 08:04:51;;;;;;;14.20;3.77;;;;;;;4.69;84.34;99728.52;123431;1102;64976;-79
2021/03/14 08:07:32;;;;;;;26.05;9.23;;;;;;;4.72;84.55;99735.28;123936;1105;64920;-79
2021/03/14 08:10:00;;;;;;;16.00;4.90;;;;;;;4.74;83.97;99754.34;123468;1102;64777;-81
2021/03/14 08:12:35;;;;;;;6.50;4.03;;;;;;;4.73;83.15;99752.67;123755;1102;64888;-80
2021/03/14 08:15:18;;;;;;;;;;;;;;;4.67;83.23;99758.56;123745;1102;64898;-80
2021/03/14 08:17:44;;;;;;;20.60;8.57;;;;;;;4.66;83.09;99763.00;124349;1102;64888;-79
2021/03/14 08:20:12;;;;;;;19.73;8.10;;;;;;;4.65;82.42;99781.55;123478;1102;64985;-81
2021/03/14 08:22:38;;;;;;;11.57;3.57;;;;;;;4.64;81.99;99807.00;123653;1102;64914;-82
2021/03/14 08:25:19;;;;;;;24.57;8.05;;;;;;;4.68;82.53;99770.73;123492;1102;64933;-80
2021/03/14 08:27:46;;;;;;;23.73;7.10;;;;;;;4.73;82.21;99794.71;123350;1102;64950;-79
2021/03/14 08:30:32;;;;;;;28.93;8.73;;;;;;;4.75;82.19;99787.49;123657;1102;65686;-80
2021/03/14 08:33:17;;;;;;;21.83;6.87;;;;;;;4.81;82.81;99792.11;123515;1101;65049;-79
2021/03/14 08:35:47;;;;;;;20.75;9.55;;;;;;;4.89;81.52;99812.35;123515;1102;66165;-82
2021/03/14 08:38:32;;;;;;;11.00;2.90;;;;;;;4.96;80.46;99802.02;123486;1102;64905;-82
2021/03/14 08:41:24;;;;;;;19.73;6.30;;;;;;;5.05;80.97;99811.55;123465;1102;64908;-81
2021/03/14 08:43:55;;;;;;;14.20;4.43;;;;;;;5.14;79.73;99804.50;123495;1105;64895;-81
2021/03/14 08:46:50;;;;;;;26.00;9.03;;;;;;;5.16;79.07;99816.50;123782;1105;65707;-81
2021/03/14 08:49:18;;;;;;;;;;;;;;;5.26;79.23;99825.06;123842;1102;64908;-79
2021/03/14 08:51:45;;;;;;;13.30;5.13;;;;;;;5.28;78.41;99822.28;123482;1106;64882;-80
2021/03/14 08:54:36;;;;;;;8.60;2.03;;;;;;;5.30;78.78;99844.80;123496;1102;64835;-80
2021/03/14 08:57:06;;;;;;;24.07;5.93;;;;;;;5.31;78.77;99835.09;123512;1105;64870;-82
2021/03/14 08:59:32;;;;;;;7.17;2.40;;;;;;;5.25;78.00;99857.63;123726;1105;64982;-81
2021/03/14 09:02:02;;;;;;;11.93;3.57;;;;;;;5.29;78.99;99843.17;123518;1105;64911;-80
2021/03/14 09:04:35;;;;;;;20.43;5.63;;;;;;;5.27;78.60;99871.44;123589;1105;65362;-81
2021/03/14 09:07:11;;;;;;;24.70;7.07;;;;;;;5.26;78.47;99843.47;123436;1105;64895;-81
2021/03/14 09:09:38;;;;;;;17.80;7.73;;;;;;;5.27;78.80;99871.44;123520;1103;65539;-79
2021/03/14 09:12:07;;;;;;;13.20;3.90;;;;;;;5.26;77.95;99861.88;123453;1105;64898;-82
2021/03/14 09:14:37;;;;;;;7.80;3.10;;;;;;;5.30;78.58;99865.02;123764;1102;65218;-79
2021/03/14 09:17:10;;;;;;;9.10;2.10;;;;;;;5.31;77.58;99872.76;123579;1102;65709;-82
2021/03/14 09:19:39;;;;;;;14.43;5.20;;;;;;;5.37;78.44;99875.72;123637;1105;64963;-81
2021/03/14 09:22:20;;;;;;;8.43;3.23;;;;;;;5.41;77.45;99877.04;123853;1102;64901;-82
2021/03/14 09:24:56;;;;;;;19.20;5.07;;;;;;;5.51;78.49;99888.25;123595;1102;65004;-81
2021/03/14 09:27:31;;;;;;;11.50;4.80;;;;;;;5.58;77.28;99872.63;124519;1102;64943;-81
2021/03/14 09:30:19;;;;;;;6.03;2.33;;;;;;;5.63;76.43;99880.84;123509;1105;65224;-82
2021/03/14 09:33:01;;;;;;;13.67;6.97;;;;;;;5.66;75.13;99891.88;123451;1105;64899;-77
2021/03/14 09:35:34;;;;;;;18.97;6.83;;;;;;;5.70;75.09;99910.80;123501;1105;64899;-79
2021/03/14 09:38:09;;;;;;;15.77;5.83;;;;;;;5.78;75.52;99881.87;123733;1102;65052;-79
2021/03/14 09:40:38;;;;;;;21.52;6.35;;;;;;;5.81;75.99;99888.61;123496;1102;65409;-79
2021/03/14 09:43:24;;;;;;;8.10;2.13;;;;;;;5.80;74.87;99902.73;123478;1105;64902;-77
2021/03/14 09:45:51;;;;;;;20.17;6.97;;;;;;;5.91;75.36;99895.35;123486;1105;64879;-78
2021/03/14 09:48:19;;;;;;;10.80;4.17;;;;;;;5.97;74.84;99901.81;123799;1105;65682;-78
2021/03/14 09:50:54;;;;;;;6.73;2.83;;;;;;;6.06;74.14;99921.06;123329;1105;64860;-78
2021/03/14 09:53:23;;;;;;;7.50;3.53;;;;;;;6.19;74.32;99917.94;123377;1105;64971;-79
2021/03/14 09:55:55;;;;;;;8.17;3.27;;;;;;;6.27;73.24;99921.38;123402;1103;66354;-79
2021/03/14 09:58:23;;;;;;;3.70;1.73;;;;;;;6.35;72.81;99932.89;123542;1105;64882;-79
2021/03/14 10:00:51;;;;;;;10.60;3.77;;;;;;;6.45;72.33;99923.00;123734;1102;64918;-79
2021/03/14 10:03:22;;;;;;;7.30;2.55;;;;;;;6.49;71.64;99930.40;123622;1102;64914;-79
2021/03/14 10:05:55;;;;;;;14.37;4.37;;;;;;;6.61;71.04;99927.41;123528;1105;64834;-81
2021/03/14 10:08:33;;;;;;;8.67;3.80;;;;;;;6.63;70.65;99935.97;123390;1102;65736;-80
2021/03/14 10:11:04;;;;;;;10.53;3.60;;;;;;;6.68;69.36;99970.56;123421;1102;64891;-82
2021/03/14 10:13:32;;;;;;;8.13;2.97;;;;;;;6.81;69.89;99949.77;123546;1105;64920;-80
2021/03/14 10:16:05;;;;;;;10.17;3.77;;;;;;;6.93;68.79;99958.16;123849;1105;65702;-81
2021/03/14 10:18:35;;;;;;;8.20;3.43;;;;;;;6.99;68.83;99951.36;123508;1104;64931;-81
2021/03/14 10:21:13;;;;;;;5.50;2.10;;;;;;;7.10;69.61;99964.20;123507;1102;64947;-80
2021/03/14 10:23:40;;;;;;;18.60;6.03;;;;;;;7.24;68.98;99954.73;123544;1104;64934;-80
2021/03/14 10:26:11;;;;;;;5.73;2.60;;;;;;;7.26;67.91;99960.66;123525;1105;64913;-81
2021/03/14 10:28:39;;;;;;;13.30;4.53;;;;;;;7.23;67.44;99969.75;123499;1102;65378;-80
2021/03/14 10:31:07;;;;;;;10.95;4.15;;;;;;;7.21;67.12;99968.28;123652;1105;64842;-78
2021/03/14 10:33:39;;;;;;;13.57;5.40;;;;;;;7.24;67.53;99965.29;123552;1102;64888;-78
2021/03/14 10:36:14;;;;;;;11.00;3.27;;;;;;;7.17;67.30;99965.16;123524;1102;64930;-78
2021/03/14 10:38:51;;;;;;;8.50;3.23;;;;;;;7.22;67.06;99967.27;123604;1105;64978;-78
2021/03/14 10:41:23;;;;;;;15.90;5.47;;;;;;;7.40;66.92;99977.61;123767;1102;64921;-77
2021/03/14 10:43:49;;;;;;;9.10;3.70;;;;;;;7.41;66.76;99981.88;123845;1105;64956;-79
2021/03/14 10:46:35;;;;;;;8.83;1.93;;;;;;;7.35;66.69;99973.66;123487;1105;65377;-78
2021/03/14 10:49:13;;;;;;;6.90;2.73;;;;;;;7.22;65.31;99975.19;123550;1102;64911;-78
2021/03/14 10:51:41;;;;;;;6.13;3.17;;;;;;;7.21;67.23;99966.46;123520;1105;64878;-78
2021/03/14 10:54:13;;;;;;;3.70;1.40;;;;;;;7.23;65.72;99993.49;123544;1102;64838;-77
2021/03/14 10:56:42;;;;;;;5.43;2.03;;;;;;;7.40;65.01;99985.52;123449;1105;64960;-78
2021/03/14 10:59:28;;;;;;;2.00;1.10;;;;;;;7.44;64.29;100005.27;123454;1105;65802;-80
2021/03/14 11:02:19;;;;;;;7.47;2.40;;;;;;;7.45;64.44;100009.56;123395;1102;65710;-79
2021/03/14 11:04:59;;;;;;;2.83;1.30;;;;;;;7.40;65.50;100007.45;123579;1102;66842;-78
2021/03/14 11:07:31;;;;;;;5.40;2.50;;;;;;;7.42;65.06;100015.20;123468;1105;64981;-77
2021/03/14 11:10:13;;;;;;;9.15;3.50;;;;;;;7.51;67.04;100012.34;123428;1102;64886;-79
2021/03/14 11:12:42;;;;;;;9.23;3.20;;;;;;;7.60;65.53;100031.59;123883;1102;64885;-81
2021/03/14 11:15:26;;;;;;;16.37;7.50;;;;;;;7.72;66.24;100026.77;124211;1102;64937;-80
2021/03/14 11:17:53;;;;;;;2.47;1.43;;;;;;;7.91;64.94;100031.61;123432;1102;64834;-79
2021/03/14 11:20:22;;;;;;;8.57;4.43;;;;;;;8.24;64.77;100010.25;123951;1106;65046;-78
2021/03/14 11:22:53;;;;;;;6.03;1.80;;;;;;;8.55;62.74;100012.86;123513;1102;64885;-77
2021/03/14 11:25:20;;;;;;;8.23;3.03;;;;;;;8.87;64.67;100005.63;123403;1102;65025;-79
2021/03/14 11:27:47;;;;;;;7.63;3.10;;;;;;;9.15;61.33;99997.88;123530;1103;65415;-78
2021/03/14 11:30:16;;;;;;;5.80;2.00;;;;;;;8.98;59.82;100017.58;123528;1102;64850;-78
2021/03/14 11:32:44;;;;;;;5.80;2.30;;;;;;;8.91;59.60;99998.97;123499;1102;64943;-79
2021/03/14 11:35:10;;;;;;;6.33;1.90;;;;;;;8.87;59.59;100002.16;123861;1102;64911;-79
2021/03/14 11:37:37;;;;;;;4.10;2.10;;;;;;;9.07;60.33;99999.80;123529;1103;64882;-79
2021/03/14 11:40:06;;;;;;;6.53;2.63;;;;;;;9.16;58.90;99988.13;123603;1102;64847;-78
2021/03/14 11:42:34;;;;;;;6.50;2.80;;;;;;;9.10;58.49;100002.09;123538;1102;64953;-79
2021/03/14 11:45:00;;;;;;;3.90;1.57;;;;;;;9.15;56.95;100012.94;123438;1102;65279;-78